Time;durP1;ratioP1;P1;durP2;ratioP2;P2;SDS_P1;SDS_P2;PMS_P1;PMS_P2;Temp;Humidity;BMP_temperature;BMP_pressure;BME280_temperature;BME280_humidity;BME280_pressure;Samples;Min_cycle;Max_cycle;Signal;HPM_P1;HPM_P2
2021/11/18 00:02:25;;;;;;;56.87;22.97;;;5.90;1.00;;;;;;5034012;28;20752;-65
2021/11/18 00:04:54;;;;;;;57.70;24.50;;;5.90;1.00;;;;;;5033720;28;20639;-64
2021/11/18 00:07:21;;;;;;;68.10;23.87;;;5.90;1.00;;;;;;5034188;28;20206;-64
2021/11/18 00:09:48;;;;;;;60.33;22.73;;;5.90;1.00;;;;;;5034090;28;20213;-65
2021/11/18 00:12:16;;;;;;;69.20;24.17;;;5.90;1.00;;;;;;5033949;28;20268;-64
2021/11/18 00:14:42;;;;;;;60.87;22.37;;;5.90;1.00;;;;;;5033383;28;20222;-64
2021/11/18 00:17:09;;;;;;;57.57;23.27;;;5.80;1.00;;;;;;5033645;28;20206;-64
2021/11/18 00:19:36;;;;;;;70.37;24.43;;;5.90;1.00;;;;;;5033922;28;20230;-65
2021/11/18 00:22:02;;;;;;;65.07;23.50;;;5.90;1.00;;;;;;5033799;28;20198;-64
2021/11/18 00:24:29;;;;;;;58.37;22.43;;;5.90;1.00;;;;;;5033725;28;20283;-65
2021/11/18 00:26:56;;;;;;;61.27;22.70;;;5.90;1.00;;;;;;5033416;28;20214;-65
2021/11/18 00:29:24;;;;;;;54.77;22.13;;;5.90;1.00;;;;;;5033518;28;20198;-63
2021/11/18 00:31:51;;;;;;;65.77;23.33;;;5.90;1.00;;;;;;5033453;28;20735;-64
2021/11/18 00:34:19;;;;;;;62.53;23.73;;;5.90;1.00;;;;;;5033329;28;20724;-64
2021/11/18 00:36:46;;;;;;;50.00;21.60;;;5.80;1.00;;;;;;5033157;28;20831;-64
2021/11/18 00:39:12;;;;;;;58.93;22.33;;;5.90;1.00;;;;;;5033285;28;20858;-65
2021/11/18 00:41:39;;;;;;;58.40;22.90;;;5.90;1.00;;;;;;5033370;28;20209;-64
2021/11/18 00:44:07;;;;;;;54.77;23.17;;;5.80;1.00;;;;;;5033115;28;20222;-64
2021/11/18 00:46:35;;;;;;;56.90;24.57;;;5.80;1.00;;;;;;5032934;28;20672;-65
2021/11/18 00:49:03;;;;;;;69.03;24.37;;;5.80;1.00;;;;;;5033411;28;20210;-65
2021/11/18 00:51:31;;;;;;;62.87;23.13;;;5.80;1.00;;;;;;5033059;28;20210;-65
2021/11/18 00:54:01;;;;;;;69.07;23.83;;;5.80;1.00;;;;;;5033142;28;20240;-64
2021/11/18 00:56:28;;;;;;;61.53;23.20;;;5.80;1.00;;;;;;5032725;28;20209;-65
2021/11/18 00:58:57;;;;;;;61.40;24.47;;;5.80;1.00;;;;;;5032843;28;20712;-64
2021/11/18 01:01:27;;;;;;;54.73;23.20;;;5.80;1.00;;;;;;5032720;28;20208;-64
2021/11/18 01:03:55;;;;;;;58.63;22.87;;;5.80;1.00;;;;;;5032486;28;20732;-64
2021/11/18 01:06:22;;;;;;;66.50;24.30;;;5.80;1.00;;;;;;5032528;28;20214;-65
2021/11/18 01:08:49;;;;;;;60.93;23.60;;;5.70;1.00;;;;;;5032731;28;20271;-65
2021/11/18 01:11:22;;;;;;;74.80;23.37;;;5.70;1.00;;;;;;5032557;28;20210;-65
2021/11/18 01:13:49;;;;;;;63.23;25.07;;;5.70;1.00;;;;;;5032537;28;20772;-65
2021/11/18 01:16:19;;;;;;;70.43;25.07;;;5.70;1.00;;;;;;5032253;28;20218;-65
2021/11/18 01:18:46;;;;;;;63.17;24.03;;;5.70;1.00;;;;;;5032707;28;20233;-65
2021/11/18 01:21:14;;;;;;;59.87;24.00;;;5.70;1.00;;;;;;5032693;28;20214;-65
2021/11/18 01:23:42;;;;;;;72.43;23.33;;;5.70;1.00;;;;;;5032399;28;20250;-64
2021/11/18 01:26:12;;;;;;;60.23;22.73;;;5.70;1.00;;;;;;5032001;28;20210;-64
2021/11/18 01:28:39;;;;;;;60.60;23.80;;;5.70;1.00;;;;;;5032676;28;20700;-64
2021/11/18 01:31:06;;;;;;;62.17;24.47;;;5.70;1.00;;;;;;5032572;28;20256;-64
2021/11/18 01:33:33;;;;;;;58.97;23.60;;;5.70;1.00;;;;;;5032583;28;20669;-64
2021/11/18 01:36:00;;;;;;;71.93;22.53;;;5.70;1.00;;;;;;5032175;28;20206;-64
2021/11/18 01:38:31;;;;;;;74.47;24.60;;;5.70;1.00;;;;;;5032219;28;20701;-64
2021/11/18 01:41:01;;;;;;;58.40;23.80;;;5.70;1.00;;;;;;5032371;28;20202;-64
2021/11/18 01:43:31;;;;;;;59.97;23.50;;;5.70;1.00;;;;;;5032116;28;20284;-65
2021/11/18 01:45:58;;;;;;;61.83;23.23;;;5.60;1.00;;;;;;5031565;28;20218;-64
2021/11/18 01:48:25;;;;;;;61.43;25.10;;;5.60;1.00;;;;;;5031964;28;20740;-64
2021/11/18 01:50:54;;;;;;;56.50;24.07;;;5.60;1.00;;;;;;5032033;28;20206;-64
2021/11/18 01:53:23;;;;;;;62.40;24.70;;;5.60;1.00;;;;;;5031848;28;20220;-65
2021/11/18 01:55:52;;;;;;;58.23;24.53;;;5.50;1.00;;;;;;5031870;28;20209;-64
2021/11/18 01:58:21;;;;;;;61.73;24.17;;;5.50;1.00;;;;;;5031926;28;20225;-64
2021/11/18 02:00:53;;;;;;;55.57;22.60;;;5.60;1.00;;;;;;5031897;28;20221;-65
2021/11/18 02:03:21;;;;;;;63.47;25.10;;;5.60;1.00;;;;;;5031809;28;20213;-64
2021/11/18 02:05:52;;;;;;;66.90;25.00;;;5.60;1.00;;;;;;5031663;28;20268;-64
2021/11/18 02:08:19;;;;;;;56.30;24.60;;;5.60;1.00;;;;;;5032122;28;20214;-65
2021/11/18 02:10:49;;;;;;;66.83;25.20;;;5.60;1.00;;;;;;5031858;28;20206;-64
2021/11/18 02:13:19;;;;;;;61.40;24.50;;;5.60;1.00;;;;;;5032919;28;20214;-64
2021/11/18 02:15:48;;;;;;;60.47;24.43;;;5.60;1.00;;;;;;5032564;28;20271;-64
2021/11/18 02:18:17;;;;;;;58.90;23.57;;;5.60;1.00;;;;;;5031895;28;20373;-64
2021/11/18 02:20:47;;;;;;;59.70;23.73;;;5.60;1.00;;;;;;5031765;28;20856;-65
2021/11/18 02:23:17;;;;;;;56.57;22.53;;;5.50;1.00;;;;;;5031785;28;20206;-65
2021/11/18 02:25:44;;;;;;;67.03;23.33;;;5.50;1.00;;;;;;5031460;28;20272;-64
2021/11/18 02:28:11;;;;;;;61.23;23.97;;;5.60;1.00;;;;;;5031521;28;20723;-65
2021/11/18 02:30:40;;;;;;;51.27;22.30;;;5.60;1.00;;;;;;5031605;28;20206;-64
2021/11/18 02:33:08;;;;;;;44.30;21.57;;;5.60;1.00;;;;;;5031672;28;20206;-64
2021/11/18 02:35:38;;;;;;;55.97;23.87;;;5.60;1.00;;;;;;5031405;28;20229;-65
2021/11/18 02:38:07;;;;;;;58.30;23.80;;;5.60;1.00;;;;;;5031632;28;20234;-65
2021/11/18 02:40:35;;;;;;;54.67;24.67;;;5.60;1.00;;;;;;5031508;28;20214;-64
2021/11/18 02:43:04;;;;;;;63.70;24.57;;;5.60;1.00;;;;;;5031354;28;20680;-64
2021/11/18 02:45:33;;;;;;;59.13;24.83;;;5.60;1.00;;;;;;5031232;28;20651;-64
2021/11/18 02:48:00;;;;;;;63.00;25.30;;;5.60;1.00;;;;;;5031681;28;20234;-65
2021/11/18 02:50:31;;;;;;;64.93;25.20;;;5.60;1.00;;;;;;5031559;28;20206;-64
2021/11/18 02:52:58;;;;;;;58.47;24.80;;;5.50;1.00;;;;;;5031661;28;20261;-64
2021/11/18 02:55:29;;;;;;;69.20;26.40;;;5.50;1.00;;;;;;5030843;28;20292;-64
2021/11/18 02:57:57;;;;;;;65.10;26.10;;;5.50;1.00;;;;;;5034962;28;20207;-64
2021/11/18 03:00:26;;;;;;;75.50;26.73;;;5.50;1.00;;;;;;5035248;28;20281;-64
2021/11/18 03:02:53;;;;;;;75.77;25.73;;;5.50;1.00;;;;;;5035241;28;20210;-64
2021/11/18 03:05:19;;;;;;;58.73;25.00;;;5.50;1.00;;;;;;5034749;28;20287;-64
2021/11/18 03:07:46;;;;;;;65.03;25.07;;;5.60;1.00;;;;;;5035144;28;20210;-64
2021/11/18 03:10:14;;;;;;;71.70;25.73;;;5.60;1.00;;;;;;5034942;28;20668;-64
2021/11/18 03:12:42;;;;;;;69.50;24.90;;;5.50;1.00;;;;;;5035321;28;20225;-64
2021/11/18 03:15:12;;;;;;;65.80;23.87;;;5.50;1.00;;;;;;5034633;28;20238;-64
2021/11/18 03:17:40;;;;;;;63.43;25.07;;;5.50;1.00;;;;;;5034900;28;20631;-64
2021/11/18 03:20:10;;;;;;;69.90;26.30;;;5.60;1.00;;;;;;5034905;28;20249;-63
2021/11/18 03:22:37;;;;;;;68.60;25.77;;;5.60;1.00;;;;;;5034626;28;20237;-64
2021/11/18 03:25:05;;;;;;;60.03;23.73;;;5.50;1.00;;;;;;5034444;28;20226;-64
2021/11/18 03:27:31;;;;;;;53.07;24.33;;;5.50;1.00;;;;;;5034912;28;20210;-63
2021/11/18 03:30:00;;;;;;;64.77;24.10;;;5.60;1.00;;;;;;5034511;28;20677;-64
2021/11/18 03:32:26;;;;;;;54.57;23.60;;;5.60;1.00;;;;;;5034700;28;20202;-65
2021/11/18 03:34:53;;;;;;;72.90;25.57;;;5.60;1.00;;;;;;5034156;28;20234;-65
2021/11/18 03:37:20;;;;;;;63.10;24.87;;;5.60;1.00;;;;;;5034460;28;20892;-65
2021/11/18 03:39:46;;;;;;;55.10;23.13;;;5.50;1.00;;;;;;5034534;28;20222;-64
2021/11/18 03:42:14;;;;;;;58.13;23.63;;;5.50;1.00;;;;;;5034543;28;20209;-64
2021/11/18 03:44:41;;;;;;;63.30;23.40;;;5.50;1.00;;;;;;5034026;28;20238;-64
2021/11/18 03:47:11;;;;;;;50.53;22.90;;;5.50;1.00;;;;;;5034458;28;20206;-64
2021/11/18 03:49:38;;;;;;;50.67;20.83;;;5.50;1.00;;;;;;5034353;28;20202;-64
2021/11/18 03:52:09;;;;;;;60.90;22.17;;;5.50;1.00;;;;;;5034377;28;20206;-64
2021/11/18 03:54:38;;;;;;;58.73;22.23;;;5.50;1.00;;;;;;5034105;28;20304;-64
2021/11/18 03:57:05;;;;;;;46.13;20.90;;;5.50;1.00;;;;;;5034180;28;20210;-65
2021/11/18 03:59:34;;;;;;;56.60;21.40;;;5.40;1.00;;;;;;5034197;28;20356;-65
2021/11/18 04:02:02;;;;;;;57.00;21.37;;;5.40;1.00;;;;;;5034100;28;20209;-64
2021/11/18 04:04:32;;;;;;;60.50;20.43;;;5.40;1.00;;;;;;5033970;28;20238;-64
2021/11/18 04:06:59;;;;;;;59.03;22.47;;;5.40;1.00;;;;;;5033573;28;20206;-64
2021/11/18 04:09:26;;;;;;;55.90;21.23;;;5.40;1.00;;;;;;5034156;28;20249;-63
2021/11/18 04:11:55;;;;;;;52.53;21.00;;;5.40;1.00;;;;;;5034103;28;20268;-64
2021/11/18 04:14:22;;;;;;;54.50;20.97;;;5.40;1.00;;;;;;5033903;28;20226;-64
2021/11/18 04:16:49;;;;;;;61.13;20.63;;;5.40;1.00;;;;;;5033411;28;20271;-64
2021/11/18 04:19:16;;;;;;;62.80;22.13;;;5.30;1.00;;;;;;5034108;28;20234;-64
2021/11/18 04:21:46;;;;;;;65.00;21.77;;;5.30;1.00;;;;;;5033922;28;20297;-64
2021/11/18 04:24:15;;;;;;;57.40;22.70;;;5.30;1.00;;;;;;5033747;28;20231;-64
2021/11/18 04:26:42;;;;;;;54.93;21.10;;;5.30;1.00;;;;;;5033296;28;20672;-63
2021/11/18 04:29:09;;;;;;;56.77;20.40;;;5.30;1.00;;;;;;5033516;28;20261;-64
2021/11/18 04:31:36;;;;;;;59.97;20.10;;;5.40;1.00;;;;;;5033686;28;20636;-64
2021/11/18 04:34:03;;;;;;;64.27;21.57;;;5.40;1.00;;;;;;5033626;28;20227;-64
2021/11/18 04:36:30;;;;;;;59.77;20.07;;;5.40;1.00;;;;;;5033386;28;20237;-64
2021/11/18 04:38:59;;;;;;;61.03;20.27;;;5.40;1.00;;;;;;5032979;28;20700;-63
2021/11/18 04:41:27;;;;;;;59.27;21.83;;;5.40;1.00;;;;;;5033567;28;20207;-65
2021/11/18 04:43:55;;;;;;;67.93;20.67;;;5.40;1.00;;;;;;5033107;28;20284;-65
2021/11/18 04:46:22;;;;;;;57.03;21.00;;;5.50;1.00;;;;;;5033198;28;20593;-64
2021/11/18 04:48:50;;;;;;;67.03;21.67;;;5.40;1.00;;;;;;5033188;28;20214;-64
2021/11/18 04:51:20;;;;;;;52.47;22.03;;;5.50;1.00;;;;;;5033151;28;20210;-65
2021/11/18 04:53:48;;;;;;;60.03;22.00;;;5.50;1.00;;;;;;5033119;28;20720;-65
2021/11/18 04:56:16;;;;;;;57.67;21.13;;;5.50;1.00;;;;;;5032580;28;20210;-65
2021/11/18 04:58:44;;;;;;;70.57;28.60;;;5.50;1.00;;;;;;5033240;28;20229;-65
2021/11/18 05:01:14;;;;;;;64.47;23.77;;;5.50;1.00;;;;;;5032976;28;20303;-65
2021/11/18 05:03:42;;;;;;;66.17;22.50;;;5.60;1.00;;;;;;5033033;28;20230;-65
2021/11/18 05:06:09;;;;;;;64.97;23.23;;;5.60;1.00;;;;;;5032564;28;20207;-65
2021/11/18 05:08:36;;;;;;;70.80;24.23;;;5.60;1.00;;;;;;5032832;28;20252;-65
2021/11/18 05:11:04;;;;;;;66.87;23.17;;;5.60;1.00;;;;;;5032870;28;20252;-64
2021/11/18 05:13:32;;;;;;;62.57;22.03;;;5.60;1.00;;;;;;5032648;28;20665;-65
2021/11/18 05:16:03;;;;;;;60.67;22.93;;;5.60;1.00;;;;;;5032327;28;20218;-65
2021/11/18 05:18:30;;;;;;;69.83;23.33;;;5.60;1.00;;;;;;5032503;28;20214;-64
2021/11/18 05:20:57;;;;;;;67.47;24.43;;;5.60;1.00;;;;;;5032450;28;20234;-64
2021/11/18 05:23:25;;;;;;;65.93;24.80;;;5.60;1.00;;;;;;5032441;28;20206;-64
2021/11/18 05:25:52;;;;;;;76.20;25.73;;;5.60;1.00;;;;;;5032643;28;20211;-64
2021/11/18 05:28:19;;;;;;;70.30;25.57;;;5.60;1.00;;;;;;5032810;28;20206;-64
2021/11/18 05:30:47;;;;;;;68.50;25.53;;;5.60;1.00;;;;;;5032801;28;20267;-64
2021/11/18 05:33:16;;;;;;;89.67;26.97;;;5.70;1.00;;;;;;5032762;28;20210;-64
2021/11/18 05:35:44;;;;;;;69.23;25.17;;;5.70;1.00;;;;;;5032560;28;20746;-63
2021/11/18 05:38:11;;;;;;;69.60;24.40;;;5.70;1.00;;;;;;5033213;28;20214;-64
2021/11/18 05:40:39;;;;;;;68.93;23.80;;;5.70;1.00;;;;;;5033547;28;20230;-64
2021/11/18 05:43:06;;;;;;;79.50;24.83;;;5.70;1.00;;;;;;5032374;28;20261;-63
2021/11/18 05:45:35;;;;;;;65.00;24.87;;;5.70;1.00;;;;;;5011847;28;20875;-64
2021/11/18 05:48:05;;;;;;;70.47;24.83;;;5.70;1.00;;;;;;5020120;28;20203;-64
2021/11/18 05:50:32;;;;;;;64.53;23.73;;;5.80;1.00;;;;;;5012096;28;20203;-63
2021/11/18 05:52:59;;;;;;;69.03;25.57;;;5.80;1.00;;;;;;5011991;28;20743;-64
2021/11/18 05:55:29;;;;;;;65.77;24.13;;;5.80;1.00;;;;;;5011602;28;20720;-63
2021/11/18 05:57:56;;;;;;;80.97;33.90;;;5.80;1.00;;;;;;5017025;28;20211;-63
2021/11/18 06:00:25;;;;;;;90.73;48.50;;;5.80;1.00;;;;;;5012039;28;20226;-63
2021/11/18 06:02:52;;;;;;;61.77;30.33;;;5.80;1.00;;;;;;5011805;28;20214;-63
2021/11/18 06:05:23;;;;;;;71.93;25.47;;;5.80;1.00;;;;;;5011653;28;20234;-64
2021/11/18 06:07:50;;;;;;;63.47;26.33;;;5.80;1.00;;;;;;5012223;28;20242;-64
2021/11/18 06:10:18;;;;;;;66.90;23.97;;;5.90;1.00;;;;;;5011800;28;20211;-64
2021/11/18 06:12:44;;;;;;;58.97;23.70;;;5.90;1.00;;;;;;5012089;28;20234;-64
2021/11/18 06:15:11;;;;;;;69.93;25.37;;;5.90;1.00;;;;;;5011200;28;20250;-64
2021/11/18 06:17:38;;;;;;;62.57;23.97;;;5.90;1.00;;;;;;5011295;28;20632;-64
2021/11/18 06:20:07;;;;;;;58.60;23.47;;;5.90;1.00;;;;;;5011225;28;20737;-64
2021/11/18 06:22:35;;;;;;;59.10;23.50;;;6.00;1.00;;;;;;5011797;28;20211;-64
2021/11/18 06:25:04;;;;;;;64.07;23.93;;;6.00;1.00;;;;;;5011281;28;20235;-64
2021/11/18 06:27:31;;;;;;;69.60;24.83;;;6.00;1.00;;;;;;5011854;28;20219;-64
2021/11/18 06:29:57;;;;;;;68.53;25.30;;;6.00;1.00;;;;;;5011654;28;20207;-63
2021/11/18 06:32:24;;;;;;;68.63;26.00;;;6.00;1.00;;;;;;5015901;28;20229;-63
2021/11/18 06:34:51;;;;;;;66.90;24.60;;;6.00;1.00;;;;;;5015481;28;20226;-63
2021/11/18 06:37:18;;;;;;;70.90;25.47;;;6.00;1.00;;;;;;5015605;28;20317;-64
2021/11/18 06:39:46;;;;;;;62.07;26.00;;;6.00;1.00;;;;;;5015047;28;20225;-63
2021/11/18 06:42:14;;;;;;;75.77;27.00;;;6.00;1.00;;;;;;5015758;28;20609;-65
2021/11/18 06:44:42;;;;;;;80.20;28.13;;;6.00;1.00;;;;;;5009141;28;20230;-63
2021/11/18 06:47:10;;;;;;;74.90;25.63;;;6.00;1.00;;;;;;5015280;28;20214;-65
2021/11/18 06:49:37;;;;;;;68.60;25.17;;;6.00;1.00;;;;;;5015547;28;20211;-63
2021/11/18 06:52:08;;;;;;;75.67;26.57;;;6.00;1.00;;;;;;5015079;28;20606;-63
2021/11/18 06:54:35;;;;;;;70.87;27.03;;;6.00;1.00;;;;;;5014486;28;20230;-65
2021/11/18 06:57:04;;;;;;;70.17;27.47;;;6.00;1.00;;;;;;5014834;28;20206;-64
2021/11/18 06:59:31;;;;;;;67.73;27.70;;;6.00;1.00;;;;;;5014869;28;20210;-63
2021/11/18 07:01:58;;;;;;;65.80;28.20;;;6.00;1.00;;;;;;5015211;28;20207;-63
2021/11/18 07:04:25;;;;;;;77.70;27.77;;;6.00;1.00;;;;;;5014637;28;20222;-62
2021/11/18 07:06:52;;;;;;;69.37;26.70;;;6.00;1.00;;;;;;5015022;28;20257;-63
2021/11/18 07:09:19;;;;;;;80.87;27.13;;;6.00;1.00;;;;;;5014607;28;20207;-61
2021/11/18 07:11:45;;;;;;;70.40;26.70;;;6.10;1.00;;;;;;5014495;28;20207;-61
2021/11/18 07:14:13;;;;;;;77.10;27.93;;;6.10;1.00;;;;;;5014402;28;20227;-61
2021/11/18 07:16:41;;;;;;;72.23;26.57;;;6.10;1.00;;;;;;5014226;28;20585;-62
2021/11/18 07:19:07;;;;;;;77.23;27.53;;;6.10;1.00;;;;;;5014683;28;20222;-62
2021/11/18 07:21:35;;;;;;;74.73;26.67;;;6.10;1.00;;;;;;5014804;28;20289;-62
2021/11/18 07:24:03;;;;;;;65.13;25.50;;;6.20;1.00;;;;;;5014402;28;20231;-63
2021/11/18 07:26:31;;;;;;;58.13;23.97;;;6.20;1.00;;;;;;5014265;28;20231;-66
2021/11/18 07:28:58;;;;;;;72.67;25.90;;;6.30;1.00;;;;;;5015222;28;20249;-66
2021/11/18 07:31:26;;;;;;;64.73;24.97;;;6.30;1.00;;;;;;5014568;28;20206;-65
2021/11/18 07:33:53;;;;;;;60.80;23.30;;;6.30;1.00;;;;;;5014669;28;20296;-61
2021/11/18 07:36:21;;;;;;;66.23;24.47;;;6.30;1.00;;;;;;5014299;28;20211;-62
2021/11/18 07:38:48;;;;;;;58.97;22.43;;;6.30;1.00;;;;;;5014295;28;20218;-62
2021/11/18 07:41:14;;;;;;;65.33;25.07;;;6.30;1.00;;;;;;5014377;28;20233;-60
2021/11/18 07:43:44;;;;;;;59.23;22.77;;;6.30;1.00;;;;;;5013628;28;20241;-61
2021/11/18 07:46:13;;;;;;;68.50;22.87;;;6.30;1.00;;;;;;5013820;28;20207;-62
2021/11/18 07:48:42;;;;;;;62.30;22.47;;;6.40;1.00;;;;;;5014033;28;20210;-62
2021/11/18 07:51:09;;;;;;;59.20;21.30;;;6.40;1.00;;;;;;5013989;28;20670;-61
2021/11/18 07:53:37;;;;;;;63.03;21.73;;;6.40;1.00;;;;;;5014071;28;20214;-63
2021/11/18 07:56:05;;;;;;;52.33;21.20;;;6.40;1.00;;;;;;5013750;28;20630;-63
2021/11/18 07:58:32;;;;;;;68.03;22.43;;;6.50;1.00;;;;;;5013927;28;20349;-65
2021/11/18 08:00:59;;;;;;;54.10;22.40;;;6.50;1.00;;;;;;5013806;28;20226;-64
2021/11/18 08:03:33;;;;;;;58.93;21.30;;;6.50;1.00;;;;;;5013516;28;20207;-69
2021/11/18 08:06:03;;;;;;;62.73;22.40;;;6.60;1.00;;;;;;5013471;28;20229;-65
2021/11/18 08:08:31;;;;;;;58.77;20.63;;;6.60;1.00;;;;;;5014054;28;20214;-66
2021/11/18 08:10:57;;;;;;;58.27;20.47;;;6.60;1.00;;;;;;5014130;28;20199;-65
2021/11/18 08:13:24;;;;;;;49.53;19.63;;;6.60;1.00;;;;;;5013407;28;20207;-64
2021/11/18 08:15:51;;;;;;;51.07;20.83;;;6.60;1.00;;;;;;5013211;28;20640;-65
2021/11/18 08:18:18;;;;;;;49.20;20.10;;;6.70;1.00;;;;;;5024541;28;20202;-64
2021/11/18 08:20:45;;;;;;;73.90;28.63;;;6.70;99.90;;;;;;5026136;28;20232;-63
2021/11/18 08:23:13;;;;;;;48.30;18.33;;;7.00;1.00;;;;;;5013440;28;20211;-64
2021/11/18 08:25:39;;;;;;;42.27;16.20;;;7.00;99.90;;;;;;5013741;28;20242;-64
2021/11/18 08:28:08;;;;;;;46.17;16.83;;;7.10;99.90;;;;;;5033071;28;20260;-65
2021/11/18 08:30:36;;;;;;;41.43;16.53;;;7.10;99.90;;;;;;5033023;28;20209;-64
2021/11/18 08:33:06;;;;;;;46.73;15.87;;;7.10;99.90;;;;;;5032454;28;20206;-67
2021/11/18 08:35:35;;;;;;;36.73;14.40;;;7.20;99.90;;;;;;5016075;28;20858;-66
2021/11/18 08:38:04;;;;;;;34.70;15.03;;;7.20;99.90;;;;;;5013145;28;20219;-68
2021/11/18 08:40:33;;;;;;;38.97;13.87;;;7.30;99.90;;;;;;5013049;28;20638;-67
2021/11/18 08:43:00;;;;;;;33.27;13.13;;;7.20;99.90;;;;;;5012910;28;20208;-68
2021/11/18 08:45:27;;;;;;;40.00;13.13;;;7.20;99.90;;;;;;5011708;28;20203;-65
2021/11/18 08:47:54;;;;;;;39.30;13.97;;;7.20;80.90;;;;;;5032511;28;20211;-64
2021/11/18 08:50:23;;;;;;;43.23;14.27;;;7.20;55.00;;;;;;5032844;28;20208;-63
2021/11/18 08:52:51;;;;;;;35.60;13.23;;;7.20;22.60;;;;;;5032822;28;20272;-63
2021/11/18 08:55:21;;;;;;;35.73;13.50;;;7.20;3.60;;;;;;5030208;28;20227;-63
2021/11/18 08:57:50;;;;;;;36.20;13.00;;;7.20;1.00;;;;;;5032448;28;20203;-63
2021/11/18 09:00:22;;;;;;;42.33;13.93;;;7.30;1.00;;;;;;5032462;28;20285;-63
2021/11/18 09:02:49;;;;;;;40.57;13.27;;;7.30;1.00;;;;;;5032279;28;20558;-67
2021/11/18 09:05:17;;;;;;;30.97;12.67;;;7.40;1.00;;;;;;5031787;28;20644;-64
2021/11/18 09:07:43;;;;;;;37.10;14.23;;;7.30;1.00;;;;;;5032645;28;20206;-64
2021/11/18 09:10:13;;;;;;;39.33;13.57;;;7.30;1.00;;;;;;5032277;28;20209;-64
2021/11/18 09:12:42;;;;;;;32.07;12.33;;;7.40;1.00;;;;;;5032091;28;20210;-64
2021/11/18 09:15:10;;;;;;;33.87;13.73;;;7.50;1.00;;;;;;5031265;28;20239;-63
2021/11/18 09:17:37;;;;;;;32.13;14.37;;;7.50;1.00;;;;;;5032309;28;20231;-68
2021/11/18 09:20:07;;;;;;;34.20;13.63;;;7.60;1.00;;;;;;5032231;28;20590;-66
2021/11/18 09:22:33;;;;;;;34.47;13.33;;;7.70;1.00;;;;;;5031943;28;20604;-66
2021/11/18 09:25:02;;;;;;;32.37;13.63;;;7.70;1.00;;;;;;5031204;28;20649;-66
2021/11/18 09:27:33;;;;;;;40.47;13.30;;;7.80;1.00;;;;;;5031987;28;20218;-67
2021/11/18 09:30:02;;;;;;;34.30;13.00;;;7.90;1.00;;;;;;5032131;28;20588;-66
2021/11/18 09:32:30;;;;;;;35.23;12.63;;;8.00;1.00;;;;;;5032012;28;20303;-66
2021/11/18 09:34:58;;;;;;;36.57;12.60;;;8.00;99.90;;;;;;5031259;28;20224;-64
2021/11/18 09:37:25;;;;;;;30.23;12.67;;;7.90;99.90;;;;;;5031493;28;20219;-64
2021/11/18 09:39:52;;;;;;;32.17;11.73;;;8.00;99.90;;;;;;5031757;28;20240;-64
2021/11/18 09:42:22;;;;;;;33.60;12.33;;;8.00;99.90;;;;;;5031944;28;20228;-65
2021/11/18 09:45:04;;;;;;;32.10;12.13;;;8.10;99.90;;;;;;5031369;28;20254;-64
2021/11/18 09:48:04;;;;;;;36.63;11.67;;;8.10;99.90;;;;;;5032093;28;20204;-69
2021/11/18 09:50:38;;;;;;;35.77;11.83;;;8.20;99.90;;;;;;5031943;28;20215;-66
2021/11/18 09:53:12;;;;;;;26.90;10.80;;;8.30;99.90;;;;;;5031756;28;20211;-64
2021/11/18 09:55:42;;;;;;;25.70;10.23;;;8.30;99.90;;;;;;5031054;28;20644;-65
2021/11/18 09:58:32;;;;;;;29.07;10.77;;;8.40;99.90;;;;;;5031549;28;20307;-63
2021/11/18 10:01:18;;;;;;;26.63;11.23;;;8.50;99.90;;;;;;5031612;28;20233;-64
2021/11/18 10:03:54;;;;;;;29.30;11.47;;;8.50;99.90;;;;;;5031136;28;20788;-66
2021/11/18 10:06:25;;;;;;;28.97;10.97;;;8.50;99.90;;;;;;5030941;28;20209;-64
2021/11/18 10:09:02;;;;;;;24.00;9.30;;;8.50;99.90;;;;;;5031069;28;20212;-64
2021/11/18 10:11:40;;;;;;;27.30;10.43;;;8.40;94.70;;;;;;5031827;28;20234;-64
2021/11/18 10:14:45;;;;;;;24.23;9.00;;;8.50;90.80;;;;;;5031427;28;20233;-65
2021/11/18 10:17:23;;;;;;;29.93;10.80;;;8.50;58.80;;;;;;5010870;28;20750;-67
2021/11/18 10:19:53;;;;;;;28.83;10.63;;;8.60;56.30;;;;;;5031412;28;20215;-66
2021/11/18 10:22:22;;;;;;;28.57;10.17;;;8.70;42.50;;;;;;5031370;28;20229;-65
2021/11/18 10:24:51;;;;;;;25.80;10.87;;;8.70;29.40;;;;;;5030387;28;20233;-66
2021/11/18 10:27:23;;;;;;;31.13;10.27;;;8.70;20.80;;;;;;5031138;28;20206;-67
2021/11/18 10:30:13;;;;;;;22.77;9.53;;;8.70;18.50;;;;;;5031248;28;20224;-67
2021/11/18 10:32:54;;;;;;;25.70;10.57;;;8.70;6.50;;;;;;5026091;28;20210;-66
2021/11/18 10:35:29;;;;;;;28.30;10.03;;;8.70;6.30;;;;;;5030782;28;20230;-64
2021/11/18 10:38:22;;;;;;;23.93;10.50;;;8.70;4.30;;;;;;5030914;28;20339;-66
2021/11/18 10:40:59;;;;;;;34.27;10.57;;;8.70;3.80;;;;;;5031306;28;20225;-65
2021/11/18 10:43:30;;;;;;;29.67;11.17;;;8.70;3.60;;;;;;5030950;28;20216;-64
2021/11/18 10:46:09;;;;;;;26.67;10.20;;;8.80;1.00;;;;;;5030399;28;20213;-65
2021/11/18 10:48:40;;;;;;;29.27;11.20;;;8.90;1.00;;;;;;5031144;28;20206;-64
2021/11/18 10:51:11;;;;;;;20.20;8.83;;;8.90;1.00;;;;;;5031434;28;20205;-67
2021/11/18 10:53:50;;;;;;;31.63;11.13;;;9.00;1.00;;;;;;5030642;28;20205;-66
2021/11/18 10:56:20;;;;;;;29.50;11.57;;;9.00;1.00;;;;;;5030481;28;20209;-66
2021/11/18 10:59:00;;;;;;;26.40;11.10;;;9.10;1.00;;;;;;5030632;28;20206;-66
2021/11/18 11:01:34;;;;;;;28.53;11.43;;;9.10;1.00;;;;;;5030978;28;20230;-63
2021/11/18 11:04:04;;;;;;;23.80;11.00;;;9.20;1.00;;;;;;5030842;28;20238;-68
2021/11/18 11:06:33;;;;;;;25.27;10.60;;;9.30;1.00;;;;;;5030697;28;20260;-64
2021/11/18 11:09:14;;;;;;;26.73;10.10;;;9.40;1.00;;;;;;5030698;28;20206;-67
2021/11/18 11:11:56;;;;;;;26.63;10.00;;;9.40;1.00;;;;;;5031169;28;20290;-64
2021/11/18 11:14:50;;;;;;;28.97;10.77;;;9.40;1.00;;;;;;5030727;28;20233;-63
2021/11/18 11:17:27;;;;;;;30.60;12.03;;;9.40;1.00;;;;;;5031401;28;20624;-66
2021/11/18 11:20:02;;;;;;;29.67;10.73;;;9.40;1.00;;;;;;5034356;28;20210;-63
2021/11/18 11:22:40;;;;;;;26.60;10.90;;;9.30;1.00;;;;;;5034423;28;20722;-65
2021/11/18 11:25:39;;;;;;;26.63;11.43;;;9.20;1.00;;;;;;5033774;28;20252;-67
2021/11/18 11:28:32;;;;;;;30.40;12.73;;;9.20;1.00;;;;;;5034325;28;20297;-66
2021/11/18 11:31:39;;;;;;;38.60;12.60;;;9.30;1.00;;;;;;5003637;28;20631;-68
2021/11/18 11:34:24;;;;;;;28.13;12.03;;;9.30;1.00;;;;;;4953425;29;20240;-66
2021/11/18 11:36:58;;;;;;;25.10;11.17;;;9.30;1.00;;;;;;5024129;28;20206;-67
2021/11/18 11:39:30;;;;;;;24.43;10.47;;;9.40;1.00;;;;;;5033910;28;20217;-67
2021/11/18 11:42:36;;;;;;;26.70;10.97;;;9.50;1.00;;;;;;5034099;28;20644;-67
2021/11/18 11:45:15;;;;;;;23.73;11.63;;;9.60;1.00;;;;;;5030066;28;20226;-66
2021/11/18 11:48:24;;;;;;;23.33;9.73;;;9.60;1.00;;;;;;5034114;28;20252;-66
2021/11/18 11:51:30;;;;;;;30.70;11.50;;;9.70;1.00;;;;;;5034044;28;20260;-65
2021/11/18 11:54:30;;;;;;;26.10;10.00;;;9.70;1.00;;;;;;5033957;28;20627;-64
2021/11/18 11:57:02;;;;;;;22.93;9.73;;;9.70;1.00;;;;;;5033795;28;20202;-65
2021/11/18 11:59:33;;;;;;;25.07;10.30;;;9.70;1.00;;;;;;5033707;28;20233;-66
2021/11/18 12:02:04;;;;;;;27.00;10.77;;;9.70;1.00;;;;;;5033600;28;20599;-65
2021/11/18 12:04:35;;;;;;;23.37;9.77;;;9.80;1.00;;;;;;5033604;28;20222;-65
2021/11/18 12:07:15;;;;;;;31.23;11.60;;;9.70;1.00;;;;;;5033480;28;20605;-65
2021/11/18 12:09:54;;;;;;;20.13;9.77;;;9.80;1.00;;;;;;5033744;28;20273;-64
2021/11/18 12:12:29;;;;;;;26.67;10.00;;;9.70;1.00;;;;;;5033539;28;20671;-65
2021/11/18 12:14:56;;;;;;;24.23;9.33;;;9.80;1.00;;;;;;5032769;28;20237;-64
2021/11/18 12:17:26;;;;;;;23.23;9.07;;;9.90;1.00;;;;;;5033238;28;20213;-66
2021/11/18 12:19:56;;;;;;;23.77;8.80;;;10.00;1.00;;;;;;5033318;28;20210;-66
2021/11/18 12:22:33;;;;;;;17.80;8.53;;;10.10;1.00;;;;;;5033194;28;20682;-66
2021/11/18 12:25:08;;;;;;;26.07;9.37;;;10.20;1.00;;;;;;5032469;28;20226;-66
2021/11/18 12:27:39;;;;;;;23.80;7.70;;;10.30;1.00;;;;;;5032820;28;20201;-65
2021/11/18 12:30:16;;;;;;;18.13;7.03;;;10.40;1.00;;;;;;5032876;28;20214;-64
2021/11/18 12:32:55;;;;;;;22.60;6.80;;;10.40;1.00;;;;;;5024346;28;20217;-63
2021/11/18 12:35:43;;;;;;;22.33;6.80;;;10.60;1.00;;;;;;5012429;28;20630;-64
2021/11/18 12:38:36;;;;;;;18.70;6.80;;;10.50;1.00;;;;;;5012936;28;20218;-64
2021/11/18 12:41:11;;;;;;;28.60;7.43;;;10.50;1.00;;;;;;5012565;28;20222;-64
2021/11/18 12:44:01;;;;;;;18.10;5.80;;;10.20;1.00;;;;;;5021411;28;20236;-64
2021/11/18 12:46:33;;;;;;;19.47;6.33;;;10.30;1.00;;;;;;5032514;28;20242;-67
2021/11/18 12:49:16;;;;;;;20.63;5.80;;;10.40;1.00;;;;;;5019621;28;20212;-61
2021/11/18 12:51:55;;;;;;;17.07;6.10;;;10.30;1.00;;;;;;5012940;28;20848;-63
2021/11/18 12:54:29;;;;;;;15.57;5.30;;;10.40;1.00;;;;;;5012541;28;20231;-66
2021/11/18 12:57:26;;;;;;;22.33;5.77;;;10.40;1.00;;;;;;5012857;28;20210;-64
2021/11/18 12:59:57;;;;;;;21.50;5.40;;;10.30;1.00;;;;;;5009449;28;20297;-64
2021/11/18 13:02:59;;;;;;;21.47;6.27;;;10.40;1.00;;;;;;5012853;28;20327;-64
2021/11/18 13:05:45;;;;;;;14.80;4.60;;;10.40;1.00;;;;;;5011969;28;20230;-63